createdAt,value
2018-05-16T00:01:10.149Z,90.37
2018-05-16T00:03:38.509Z,90.36
2018-05-16T00:06:07.636Z,90.34
2018-05-16T00:08:36.161Z,90.41
2018-05-16T00:11:05.489Z,90.38
2018-05-16T00:13:34.699Z,90.35
2018-05-16T00:16:03.057Z,90.25
2018-05-16T00:18:32.151Z,90.14
2018-05-16T00:21:01.392Z,90.13
2018-05-16T00:23:29.833Z,90.17
2018-05-16T00:25:59.307Z,90.16
2018-05-16T00:28:28.064Z,90.20
2018-05-16T00:30:56.461Z,90.19
2018-05-16T00:33:25.693Z,90.26
2018-05-16T00:35:54.830Z,90.23
2018-05-16T00:38:23.167Z,90.37
2018-05-16T00:40:53.045Z,90.38
2018-05-16T00:43:21.395Z,90.46
2018-05-16T00:45:49.808Z,90.54
2018-05-16T00:48:18.151Z,90.59
2018-05-16T00:51:04.240Z,90.62
2018-05-16T00:53:32.579Z,90.68
2018-05-16T00:56:00.989Z,90.71
2018-05-16T00:58:29.352Z,90.74
2018-05-16T01:00:58.455Z,90.70
2018-05-16T01:03:26.833Z,90.75
2018-05-16T01:05:55.171Z,90.78
2018-05-16T01:08:23.591Z,90.79
2018-05-16T01:10:51.923Z,90.78
2018-05-16T01:13:20.280Z,90.76
2018-05-16T01:15:48.647Z,90.72
2018-05-16T01:18:17.027Z,90.64
2018-05-16T01:20:45.806Z,90.62
2018-05-16T01:23:14.142Z,90.59
2018-05-16T01:25:42.511Z,90.57
2018-05-16T01:28:10.857Z,90.55
2018-05-16T01:30:39.240Z,90.53
2018-05-16T01:33:07.588Z,90.53
2018-05-16T01:35:35.931Z,90.46
2018-05-16T01:38:04.399Z,90.38
2018-05-16T01:40:32.769Z,90.35
2018-05-16T01:43:01.143Z,90.30
2018-05-16T01:45:29.536Z,90.23
2018-05-16T01:50:32.486Z,89.92
2018-05-16T01:53:00.810Z,89.78
2018-05-16T01:55:29.187Z,89.63
2018-05-16T01:57:57.533Z,89.40
2018-05-16T02:00:25.914Z,89.31
2018-05-16T02:02:54.282Z,89.17
2018-05-16T02:05:22.647Z,88.99
2018-05-16T02:07:50.991Z,88.89
2018-05-16T02:10:19.751Z,88.77
2018-05-16T02:12:48.064Z,88.73
2018-05-16T02:15:17.171Z,88.64
2018-05-16T02:17:45.539Z,88.49
2018-05-16T02:20:14.661Z,88.33
2018-05-16T02:22:43.018Z,88.17
2018-05-16T02:25:12.127Z,88.16
2018-05-16T02:27:40.496Z,88.19
2018-05-16T02:30:09.609Z,88.21
2018-05-16T02:32:38.000Z,88.23
2018-05-16T02:35:07.381Z,88.21
2018-05-16T02:37:36.275Z,88.21
2018-05-16T02:40:04.607Z,88.21
2018-05-16T02:42:32.973Z,88.19
2018-05-16T02:45:01.322Z,88.20
2018-05-16T02:47:29.727Z,88.23
2018-05-16T02:49:58.791Z,88.22
2018-05-16T02:52:27.110Z,88.22
2018-05-16T02:54:55.481Z,87.97
2018-05-16T02:57:23.871Z,87.80
2018-05-16T02:59:52.247Z,87.77
2018-05-16T03:02:20.618Z,87.83
2018-05-16T03:04:48.977Z,88.02
2018-05-16T03:07:17.276Z,88.09
2018-05-16T03:09:45.618Z,88.18
2018-05-16T03:12:13.987Z,88.21
2018-05-16T03:14:42.344Z,88.25
2018-05-16T03:17:10.686Z,88.25
2018-05-16T03:19:39.067Z,88.20
2018-05-16T03:22:07.473Z,88.22
2018-05-16T03:24:36.599Z,88.30
2018-05-16T03:27:04.967Z,88.51
2018-05-16T03:29:33.291Z,88.65
2018-05-16T03:32:01.684Z,88.78
2018-05-16T03:34:30.787Z,88.86
2018-05-16T03:36:59.227Z,88.97
2018-05-16T03:39:28.034Z,89.06
2018-05-16T03:41:56.419Z,89.06
2018-05-16T03:44:25.579Z,89.04
2018-05-16T03:46:54.525Z,89.01
2018-05-16T03:49:23.638Z,89.02
2018-05-16T03:51:52.038Z,89.07
2018-05-16T03:54:20.417Z,89.18
2018-05-16T03:56:48.803Z,89.26
2018-05-16T03:59:35.104Z,89.29
2018-05-16T04:02:21.199Z,89.39
2018-05-16T04:04:49.467Z,89.40
2018-05-16T04:07:17.822Z,89.46
2018-05-16T04:09:46.261Z,89.67
2018-05-16T04:12:14.839Z,89.85
2018-05-16T04:14:43.210Z,89.92
2018-05-16T04:17:11.647Z,90.10
2018-05-16T04:19:40.039Z,89.99
2018-05-16T04:22:08.437Z,89.97
2018-05-16T04:24:36.875Z,89.96
2018-05-16T04:27:05.239Z,89.84
2018-05-16T04:29:34.372Z,89.78
2018-05-16T04:32:02.754Z,89.83
2018-05-16T04:34:31.124Z,89.84
2018-05-16T04:36:59.453Z,89.95
2018-05-16T04:39:27.803Z,90.09
2018-05-16T04:41:56.137Z,89.85
2018-05-16T04:44:24.517Z,89.63
2018-05-16T04:46:52.863Z,89.51
2018-05-16T04:49:21.243Z,89.41
2018-05-16T04:51:49.634Z,89.37
2018-05-16T04:54:18.774Z,89.44
2018-05-16T04:56:47.170Z,89.34
2018-05-16T04:59:15.554Z,89.15
2018-05-16T05:01:43.900Z,88.97
2018-05-16T05:04:12.265Z,88.78
2018-05-16T05:06:40.626Z,88.52
2018-05-16T05:09:09.781Z,88.27
2018-05-16T05:11:38.166Z,88.19
2018-05-16T05:14:06.501Z,88.26
2018-05-16T05:16:34.876Z,88.19
2018-05-16T05:19:03.245Z,88.04
2018-05-16T05:21:31.574Z,87.79
2018-05-16T05:23:59.943Z,87.23
2018-05-16T05:26:28.277Z,86.59
2018-05-16T05:28:56.636Z,86.04
2018-05-16T05:31:25.754Z,85.66
2018-05-16T05:33:54.124Z,85.54
2018-05-16T05:36:23.651Z,85.68
2018-05-16T05:38:52.790Z,86.02
2018-05-16T05:41:21.171Z,86.45
2018-05-16T05:43:49.513Z,86.81
2018-05-16T05:46:17.854Z,86.82
2018-05-16T05:48:47.026Z,86.71
2018-05-16T05:51:15.382Z,86.67
2018-05-16T05:53:43.839Z,86.49
2018-05-16T05:56:12.227Z,86.04
2018-05-16T05:58:41.356Z,85.50
2018-05-16T06:01:09.704Z,85.17
2018-05-16T06:03:38.074Z,85.03
2018-05-16T06:06:06.438Z,84.64
2018-05-16T06:08:34.815Z,84.16
2018-05-16T06:11:03.201Z,83.70
2018-05-16T06:13:32.301Z,83.40
2018-05-16T06:16:03.528Z,83.51
2018-05-16T06:18:33.878Z,83.51
2018-05-16T06:21:02.202Z,83.77
2018-05-16T06:23:31.343Z,83.39
2018-05-16T06:25:59.693Z,82.28
2018-05-16T06:28:28.069Z,80.99
2018-05-16T06:30:56.463Z,80.14
2018-05-16T06:33:24.795Z,79.83
2018-05-16T06:35:53.164Z,79.11
2018-05-16T06:38:21.485Z,78.40
2018-05-16T06:40:49.881Z,77.49
2018-05-16T06:43:18.228Z,77.56
2018-05-16T06:45:47.380Z,78.09
2018-05-16T06:48:15.823Z,79.03
2018-05-16T06:50:44.177Z,79.54
2018-05-16T06:53:13.321Z,80.53
2018-05-16T06:55:41.659Z,81.02
2018-05-16T06:58:10.817Z,80.97
2018-05-16T07:00:39.141Z,80.07
2018-05-16T07:03:07.499Z,79.23
2018-05-16T07:05:36.603Z,79.15
2018-05-16T07:08:05.749Z,79.38
2018-05-16T07:10:34.106Z,79.71
2018-05-16T07:13:02.497Z,79.99
2018-05-16T07:15:31.236Z,80.46
2018-05-16T07:18:00.374Z,80.34
2018-05-16T07:20:29.462Z,79.60
2018-05-16T07:22:57.793Z,78.95
2018-05-16T07:25:26.173Z,78.42
2018-05-16T07:27:54.532Z,77.82
2018-05-16T07:30:22.902Z,76.54
2018-05-16T07:32:51.269Z,74.88
2018-05-16T07:35:19.640Z,73.95
2018-05-16T07:37:48.763Z,73.41
2018-05-16T07:40:17.151Z,72.37
2018-05-16T07:42:45.508Z,71.51
2018-05-16T07:45:13.911Z,70.71
2018-05-16T07:47:42.295Z,69.55
2018-05-16T07:50:10.620Z,68.36
2018-05-16T07:52:39.000Z,66.91
2018-05-16T07:55:07.346Z,64.92
2018-05-16T07:57:35.717Z,66.13
2018-05-16T08:00:04.849Z,68.45
2018-05-16T08:02:33.187Z,68.13
2018-05-16T08:05:02.322Z,67.13
2018-05-16T08:07:30.689Z,66.04
2018-05-16T08:09:59.058Z,65.30
2018-05-16T08:12:27.447Z,65.65
2018-05-16T08:14:55.801Z,65.97
2018-05-16T08:17:24.165Z,67.56
2018-05-16T08:19:53.290Z,65.66
2018-05-16T08:22:21.638Z,65.54
2018-05-16T08:24:50.356Z,64.81
2018-05-16T08:27:18.736Z,63.76
2018-05-16T08:29:47.136Z,62.84
2018-05-16T08:32:16.280Z,62.03
2018-05-16T08:34:45.075Z,61.40
2018-05-16T08:37:14.184Z,63.57
2018-05-16T08:39:42.577Z,61.50
2018-05-16T08:42:10.957Z,62.23
2018-05-16T08:44:39.775Z,62.96
2018-05-16T08:47:08.154Z,61.37
2018-05-16T08:49:36.555Z,60.65
2018-05-16T08:52:06.222Z,59.82
2018-05-16T08:54:35.531Z,60.56
2018-05-16T08:57:06.585Z,60.21
2018-05-16T08:59:35.486Z,59.07
2018-05-16T09:02:05.829Z,58.53
2018-05-16T09:04:36.572Z,60.29
2018-05-16T09:07:05.655Z,58.29
2018-05-16T09:09:35.164Z,57.50
2018-05-16T09:12:03.731Z,58.36
2018-05-16T09:14:33.884Z,56.27
2018-05-16T09:17:02.248Z,54.32
2018-05-16T09:19:32.035Z,52.71
2018-05-16T09:22:01.226Z,55.25
2018-05-16T09:24:30.117Z,53.87
2018-05-16T09:26:59.598Z,52.33
2018-05-16T09:29:28.383Z,53.64
2018-05-16T09:31:57.528Z,51.95
2018-05-16T09:34:26.871Z,50.84
2018-05-16T09:36:55.256Z,51.08
2018-05-16T09:39:23.770Z,52.36
2018-05-16T09:41:52.176Z,52.87
2018-05-16T09:44:20.579Z,54.01
2018-05-16T09:46:48.946Z,53.04
2018-05-16T09:49:17.330Z,51.62
2018-05-16T09:51:45.759Z,51.00
2018-05-16T09:54:14.324Z,54.61
2018-05-16T09:56:43.380Z,54.76
2018-05-16T09:59:12.384Z,53.98
2018-05-16T10:01:42.907Z,53.77
2018-05-16T10:04:13.006Z,50.13
2018-05-16T10:06:42.168Z,50.05
2018-05-16T10:09:10.518Z,47.82
2018-05-16T10:11:39.316Z,47.79
2018-05-16T10:14:07.663Z,45.67
2018-05-16T10:16:36.109Z,49.47
2018-05-16T10:19:04.571Z,52.85
2018-05-16T10:21:33.001Z,57.08
2018-05-16T10:24:01.537Z,54.41
2018-05-16T10:26:30.792Z,53.10
2018-05-16T10:28:59.358Z,49.92
2018-05-16T10:31:27.821Z,48.72
2018-05-16T10:33:56.943Z,48.78
2018-05-16T10:36:25.328Z,47.94
2018-05-16T10:38:53.732Z,47.47
2018-05-16T10:41:22.203Z,50.02
2018-05-16T10:43:51.160Z,49.12
2018-05-16T10:46:20.461Z,48.25
2018-05-16T10:48:50.266Z,46.98
2018-05-16T10:51:18.611Z,47.18
2018-05-16T10:53:47.147Z,46.44
2018-05-16T10:56:16.364Z,45.74
2018-05-16T10:58:45.395Z,45.90
2018-05-16T11:01:13.776Z,42.85
2018-05-16T11:03:43.024Z,42.02
2018-05-16T11:06:11.482Z,43.43
2018-05-16T11:08:39.835Z,42.28
2018-05-16T11:11:08.980Z,43.89
2018-05-16T11:13:37.972Z,45.17
2018-05-16T11:16:06.708Z,46.53
2018-05-16T11:18:35.950Z,43.08
2018-05-16T11:21:04.834Z,42.50
2018-05-16T11:23:33.256Z,45.26
2018-05-16T11:26:01.612Z,47.39
2018-05-16T11:28:31.000Z,49.16
2018-05-16T11:31:00.555Z,48.50
2018-05-16T11:33:29.147Z,47.77
2018-05-16T11:35:57.572Z,47.97
2018-05-16T11:38:27.017Z,47.20
2018-05-16T11:40:55.357Z,47.33
2018-05-16T11:43:23.837Z,47.55
2018-05-16T11:45:52.736Z,49.19
2018-05-16T11:48:21.151Z,46.17
2018-05-16T11:50:50.079Z,47.86
2018-05-16T11:53:18.423Z,49.36
2018-05-16T11:55:47.771Z,50.04
2018-05-16T11:58:17.444Z,49.08
2018-05-16T12:00:46.631Z,48.90
2018-05-16T12:03:15.012Z,49.23
2018-05-16T12:05:44.161Z,49.76
2018-05-16T12:08:27.979Z,50.90
2018-05-16T12:10:56.387Z,51.66
2018-05-16T12:13:24.725Z,50.95
2018-05-16T12:15:53.883Z,50.17
2018-05-16T12:18:22.259Z,51.38
2018-05-16T12:20:50.643Z,51.13
2018-05-16T12:23:19.040Z,51.94
2018-05-16T12:25:48.195Z,49.70
2018-05-16T12:28:16.538Z,50.49
2018-05-16T12:30:44.975Z,50.53
2018-05-16T12:33:13.289Z,52.15
2018-05-16T12:35:42.467Z,52.91
2018-05-16T12:38:11.625Z,54.07
2018-05-16T12:40:40.015Z,55.29
2018-05-16T12:43:18.286Z,56.65
2018-05-16T12:45:46.703Z,59.56
2018-05-16T12:48:15.877Z,66.54
2018-05-16T12:50:44.276Z,71.24
2018-05-16T12:53:12.641Z,73.10
2018-05-16T12:55:41.276Z,73.98
2018-05-16T12:58:09.796Z,74.72
2018-05-16T13:00:38.143Z,76.87
2018-05-16T13:03:07.558Z,78.16
2018-05-16T13:05:35.951Z,79.64
2018-05-16T13:08:04.361Z,79.64
2018-05-16T13:10:32.787Z,80.72
2018-05-16T13:13:01.245Z,80.66
2018-05-16T13:15:29.707Z,81.04
2018-05-16T13:17:58.229Z,80.72
2018-05-16T13:20:26.496Z,80.35
2018-05-16T13:22:55.723Z,80.46
2018-05-16T13:25:24.246Z,81.42
2018-05-16T13:27:52.782Z,79.82
2018-05-16T13:30:21.147Z,78.52
2018-05-16T13:32:50.315Z,77.89
2018-05-16T13:35:18.726Z,75.39
2018-05-16T13:37:47.061Z,73.29
2018-05-16T13:40:15.454Z,70.08
2018-05-16T13:42:43.810Z,68.83
2018-05-16T13:45:12.214Z,68.47
2018-05-16T13:47:40.606Z,66.45
2018-05-16T13:50:10.165Z,63.29
2018-05-16T13:52:38.649Z,62.76
2018-05-16T13:55:07.045Z,61.92
2018-05-16T13:57:36.193Z,60.02
2018-05-16T14:00:04.724Z,59.91
2018-05-16T14:02:33.106Z,58.44
2018-05-16T14:05:01.473Z,58.81
2018-05-16T14:07:29.897Z,59.04
2018-05-16T14:09:58.364Z,58.92
2018-05-16T14:12:26.859Z,58.68
2018-05-16T14:14:55.289Z,58.36
2018-05-16T14:17:23.675Z,59.68
2018-05-16T14:19:52.066Z,58.54
2018-05-16T14:22:20.413Z,62.80
2018-05-16T14:24:48.808Z,62.38
2018-05-16T14:27:17.151Z,64.11
2018-05-16T14:29:45.591Z,65.99
2018-05-16T14:32:14.794Z,57.51
2018-05-16T14:34:43.192Z,54.71
2018-05-16T14:37:15.315Z,59.80
2018-05-16T14:39:44.613Z,61.01
2018-05-16T14:42:13.163Z,60.97
2018-05-16T14:44:41.617Z,62.63
2018-05-16T14:47:10.178Z,63.80
2018-05-16T14:49:40.135Z,65.54
2018-05-16T14:52:08.526Z,65.93
2018-05-16T14:54:37.917Z,66.32
2018-05-16T14:57:06.336Z,65.31
2018-05-16T14:59:34.858Z,63.57
2018-05-16T15:02:08.083Z,64.00
2018-05-16T15:04:37.136Z,62.73
2018-05-16T15:07:05.575Z,61.84
2018-05-16T15:09:33.988Z,60.30
2018-05-16T15:12:03.164Z,60.40
2018-05-16T15:14:31.476Z,60.63
2018-05-16T15:17:00.724Z,61.66
2018-05-16T15:19:30.410Z,61.69
2018-05-16T15:21:59.983Z,62.64
2018-05-16T15:24:29.280Z,63.73
2018-05-16T15:26:58.501Z,64.68
2018-05-16T15:29:26.927Z,63.43
2018-05-16T15:31:55.272Z,62.06
2018-05-16T15:34:23.722Z,61.51
2018-05-16T15:36:52.152Z,60.41
2018-05-16T15:39:20.571Z,60.27
2018-05-16T15:41:52.140Z,61.18
2018-05-16T15:44:20.741Z,62.26
2018-05-16T15:46:49.206Z,63.15
2018-05-16T15:49:17.704Z,64.51
2018-05-16T15:51:51.053Z,64.91
2018-05-16T15:54:22.767Z,64.70
2018-05-16T15:56:53.665Z,65.09
2018-05-16T16:02:01.236Z,66.48
2018-05-16T16:04:29.943Z,68.32
2018-05-16T16:06:59.038Z,67.43
2018-05-16T16:09:28.199Z,68.52
2018-05-16T16:11:59.378Z,67.97
2018-05-16T16:14:28.573Z,67.40
2018-05-16T16:16:57.229Z,66.56
2018-05-16T16:19:26.926Z,66.02
2018-05-16T16:21:55.497Z,66.46
2018-05-16T16:24:25.012Z,66.80
2018-05-16T16:26:53.438Z,67.27
2018-05-16T16:29:23.418Z,65.96
2018-05-16T16:31:53.996Z,66.33
2018-05-16T16:34:22.434Z,67.06
2018-05-16T16:36:55.449Z,67.95
2018-05-16T16:39:25.955Z,68.28
2018-05-16T16:42:04.354Z,70.53
2018-05-16T16:44:33.309Z,70.79
2018-05-16T16:47:04.679Z,70.45
2018-05-16T16:49:35.530Z,70.63
2018-05-16T16:55:16.576Z,72.96
2018-05-16T16:57:45.142Z,71.53
2018-05-16T17:00:13.759Z,71.59
2018-05-16T17:02:43.140Z,71.26
2018-05-16T17:05:12.016Z,70.82
2018-05-16T17:07:45.172Z,71.04
2018-05-16T17:10:13.653Z,71.29
2018-05-16T17:12:42.067Z,71.33
2018-05-16T17:15:11.396Z,70.80
2018-05-16T17:17:39.757Z,70.42
2018-05-16T17:20:08.272Z,70.71
2018-05-16T17:22:37.055Z,70.94
2018-05-16T17:25:05.492Z,71.72
2018-05-16T17:27:34.775Z,72.16
2018-05-16T17:30:04.215Z,72.10
2018-05-16T17:32:33.544Z,72.53
2018-05-16T17:35:07.480Z,72.89
2018-05-16T17:37:35.902Z,73.64
2018-05-16T17:40:05.856Z,74.17
2018-05-16T17:42:44.045Z,74.66
2018-05-16T17:45:13.578Z,74.69
2018-05-16T17:47:43.147Z,74.38
2018-05-16T17:50:12.561Z,74.11
2018-05-16T17:52:43.548Z,74.06
2018-05-16T17:55:15.693Z,73.57
2018-05-16T17:57:44.538Z,72.88
2018-05-16T18:00:15.440Z,72.31
2018-05-16T18:02:44.636Z,72.56
2018-05-16T18:05:14.425Z,73.49
2018-05-16T18:07:43.533Z,74.63
2018-05-16T18:10:12.364Z,75.64
2018-05-16T18:12:41.513Z,76.82
2018-05-16T18:15:28.365Z,77.42
2018-05-16T18:17:59.351Z,78.14
2018-05-16T18:20:31.510Z,78.64
2018-05-16T18:23:00.440Z,78.90
2018-05-16T18:25:28.888Z,79.32
2018-05-16T18:27:58.983Z,79.69
2018-05-16T18:30:27.327Z,80.10
2018-05-16T18:32:58.882Z,80.43
2018-05-16T18:35:27.364Z,80.99
2018-05-16T18:37:56.601Z,81.40
2018-05-16T18:40:25.027Z,82.00
2018-05-16T18:42:53.477Z,82.46
2018-05-16T18:45:21.952Z,82.69
2018-05-16T18:47:52.925Z,82.64
2018-05-16T18:50:23.509Z,83.19
2018-05-16T18:52:53.097Z,83.88
2018-05-16T18:55:21.722Z,84.22
2018-05-16T18:57:51.101Z,84.64
2018-05-16T19:00:20.362Z,85.25
2018-05-16T19:02:50.218Z,85.81
2018-05-16T19:05:19.626Z,86.08
2018-05-16T19:07:48.383Z,86.51
2018-05-16T19:10:17.594Z,86.85
2018-05-16T19:12:45.991Z,87.16
2018-05-16T19:15:14.397Z,87.38
2018-05-16T19:17:42.778Z,87.60
2018-05-16T19:20:11.283Z,87.73
2018-05-16T19:22:40.433Z,87.82
2018-05-16T19:25:09.720Z,87.92
2018-05-16T19:27:38.482Z,88.02
2018-05-16T19:30:08.061Z,88.11
2018-05-16T19:32:37.347Z,88.08
2018-05-16T19:35:05.739Z,88.14
2018-05-16T19:37:35.622Z,88.37
2018-05-16T19:40:05.294Z,88.52
2018-05-16T19:42:33.669Z,88.46
2018-05-16T19:45:02.063Z,88.39
2018-05-16T19:47:30.443Z,88.39
2018-05-16T19:49:58.829Z,88.30
2018-05-16T19:52:27.231Z,88.24
2018-05-16T19:54:55.625Z,88.22
2018-05-16T19:57:24.035Z,88.19
2018-05-16T19:59:53.754Z,88.40
2018-05-16T20:02:22.105Z,88.53
2018-05-16T20:04:52.372Z,88.76
2018-05-16T20:07:20.717Z,89.11
2018-05-16T20:09:49.147Z,89.16
2018-05-16T20:12:17.495Z,89.37
2018-05-16T20:14:45.894Z,89.58
2018-05-16T20:17:14.299Z,89.54
2018-05-16T20:19:42.699Z,89.46
2018-05-16T20:22:11.818Z,89.36
2018-05-16T20:24:40.353Z,89.33
2018-05-16T20:27:08.759Z,88.96
2018-05-16T20:29:43.351Z,88.75
2018-05-16T20:32:11.869Z,88.70
2018-05-16T20:34:40.263Z,88.58
2018-05-16T20:37:08.619Z,88.43
2018-05-16T20:39:37.755Z,88.35
2018-05-16T20:42:06.110Z,88.32
2018-05-16T20:44:34.455Z,88.27
2018-05-16T20:47:03.605Z,88.32
2018-05-16T20:49:32.019Z,88.14
2018-05-16T20:52:01.024Z,88.10
2018-05-16T20:54:30.380Z,88.00
2018-05-16T20:56:58.744Z,87.87
2018-05-16T20:59:27.110Z,87.70
2018-05-16T21:01:55.471Z,87.57
2018-05-16T21:04:23.854Z,87.59
2018-05-16T21:06:52.224Z,87.70
2018-05-16T21:09:27.180Z,87.78
2018-05-16T21:11:55.574Z,87.87
2018-05-16T21:14:24.704Z,87.81
2018-05-16T21:16:53.084Z,87.90
2018-05-16T21:19:21.542Z,87.82
2018-05-16T21:21:49.878Z,87.81
2018-05-16T21:24:19.014Z,87.80
2018-05-16T21:26:47.375Z,87.92
2018-05-16T21:29:15.732Z,87.98
2018-05-16T21:31:45.234Z,87.92
2018-05-16T21:34:14.413Z,87.95
2018-05-16T21:36:43.556Z,87.95
2018-05-16T21:39:11.934Z,87.87
2018-05-16T21:41:40.374Z,87.60
2018-05-16T21:44:09.518Z,87.75
2018-05-16T21:46:37.845Z,87.95
2018-05-16T21:49:07.364Z,88.01
2018-05-16T21:51:35.742Z,88.00
2018-05-16T21:54:04.207Z,87.80
2018-05-16T21:56:33.301Z,87.95
2018-05-16T21:59:01.687Z,87.62
2018-05-16T22:01:30.805Z,87.46
2018-05-16T22:03:59.660Z,87.44
2018-05-16T22:06:28.350Z,87.43
2018-05-16T22:09:01.390Z,87.21
2018-05-16T22:11:30.366Z,87.24
2018-05-16T22:13:59.591Z,87.19
2018-05-16T22:16:28.982Z,87.20
2018-05-16T22:18:58.523Z,87.18
2018-05-16T22:21:28.597Z,87.23
2018-05-16T22:23:57.043Z,87.00
2018-05-16T22:26:26.482Z,87.02
2018-05-16T22:28:57.747Z,86.97
2018-05-16T22:31:32.466Z,87.01
2018-05-16T22:34:07.247Z,87.09
2018-05-16T22:36:42.151Z,87.18
2018-05-16T22:39:16.828Z,87.32
2018-05-16T22:41:51.376Z,87.41
2018-05-16T22:44:25.314Z,87.50
2018-05-16T22:46:53.754Z,87.49
2018-05-16T22:49:22.119Z,87.54
2018-05-16T22:51:51.494Z,87.56
2018-05-16T22:54:23.102Z,87.57
2018-05-16T22:56:51.486Z,87.57
2018-05-16T22:59:22.937Z,87.47
2018-05-16T23:01:51.759Z,87.29
2018-05-16T23:04:20.884Z,87.27
2018-05-16T23:06:49.653Z,87.30
2018-05-16T23:12:20.239Z,87.58
2018-05-16T23:14:50.384Z,87.75
2018-05-16T23:17:21.692Z,87.89
2018-05-16T23:19:53.826Z,88.16
2018-05-16T23:22:23.122Z,88.25
2018-05-16T23:24:55.975Z,88.33
2018-05-16T23:27:25.655Z,88.34
2018-05-16T23:29:54.034Z,88.43
2018-05-16T23:32:24.727Z,88.48
2018-05-16T23:34:54.218Z,88.59
2018-05-16T23:37:22.576Z,88.74
2018-05-16T23:39:50.929Z,88.78
2018-05-16T23:42:22.928Z,88.93
2018-05-16T23:44:51.493Z,88.98
2018-05-16T23:47:20.169Z,89.03
2018-05-16T23:52:55.427Z,89.24
2018-05-16T23:55:29.218Z,89.31
2018-05-16T23:58:01.952Z,89.34
